Time;durP1;ratioP1;P1;durP2;ratioP2;P2;SDS_P1;SDS_P2;PMS_P1;PMS_P2;Temp;Humidity;BMP_temperature;BMP_pressure;BME280_temperature;BME280_humidity;BME280_pressure;Samples;Min_cycle;Max_cycle;Signal;HPM_P1;HPM_P2
2023/08/12 00:00:21;;;;;;;11.85;8.52;;;23.00;81.90;;;;;;5042781;28;20029;-66
2023/08/12 00:02:47;;;;;;;15.00;9.20;;;23.00;81.90;;;;;;5050466;28;20466;-66
2023/08/12 00:05:13;;;;;;;13.73;9.30;;;23.00;82.00;;;;;;5052020;28;20041;-66
2023/08/12 00:07:42;;;;;;;13.35;8.55;;;23.00;81.90;;;;;;5044146;28;20033;-66
2023/08/12 00:10:09;;;;;;;14.10;8.52;;;23.00;82.60;;;;;;5053147;28;20029;-66
2023/08/12 00:12:36;;;;;;;13.50;8.60;;;23.00;81.90;;;;;;5048057;28;20029;-66
2023/08/12 00:15:04;;;;;;;13.00;8.25;;;23.00;81.90;;;;;;5053893;28;20025;-66
2023/08/12 00:17:30;;;;;;;13.90;8.38;;;23.00;81.90;;;;;;5047702;28;20056;-66
2023/08/12 00:19:55;;;;;;;12.10;8.55;;;23.00;81.90;;;;;;5041383;28;20024;-66
2023/08/12 00:22:22;;;;;;;13.40;8.40;;;23.00;81.90;;;;;;5046986;28;20038;-66
2023/08/12 00:24:48;;;;;;;13.07;8.02;;;23.00;81.90;;;;;;5038255;28;20116;-66
2023/08/12 00:27:14;;;;;;;11.90;7.80;;;23.00;81.90;;;;;;5028733;28;20115;-66
2023/08/12 00:29:40;;;;;;;14.07;8.30;;;23.00;81.90;;;;;;5051605;28;20033;-66
2023/08/12 00:32:06;;;;;;;14.55;8.60;;;23.00;81.80;;;;;;5053590;28;20389;-66
2023/08/12 00:34:31;;;;;;;11.43;8.05;;;23.00;81.80;;;;;;5035857;28;20028;-66
2023/08/12 00:36:57;;;;;;;11.77;7.82;;;23.00;81.90;;;;;;5052957;28;20099;-66
2023/08/12 00:39:23;;;;;;;12.93;9.13;;;22.90;81.90;;;;;;5057095;28;20039;-66
2023/08/12 00:41:49;;;;;;;13.18;8.52;;;22.90;81.90;;;;;;5053488;28;20111;-66
2023/08/12 00:44:14;;;;;;;12.13;8.18;;;22.90;81.90;;;;;;5043762;28;20424;-66
2023/08/12 00:46:42;;;;;;;15.07;9.32;;;23.00;82.00;;;;;;5048859;28;20052;-66
2023/08/12 00:49:10;;;;;;;13.68;8.80;;;22.90;81.90;;;;;;5056056;28;20029;-66
2023/08/12 00:51:37;;;;;;;13.25;8.90;;;22.90;81.90;;;;;;5046304;28;20036;-66
2023/08/12 00:54:05;;;;;;;16.48;8.45;;;22.90;81.90;;;;;;5033635;28;20024;-66
2023/08/12 00:56:31;;;;;;;15.70;9.40;;;22.90;82.00;;;;;;5042570;28;20442;-66
2023/08/12 00:59:04;;;;;;;14.10;8.55;;;22.90;82.10;;;;;;5047866;28;20354;-66
2023/08/12 01:01:30;;;;;;;14.30;8.65;;;22.90;82.10;;;;;;5049311;28;20029;-66
2023/08/12 01:03:56;;;;;;;15.63;9.07;;;22.90;82.10;;;;;;5050412;28;20086;-66
2023/08/12 01:06:23;;;;;;;14.95;9.48;;;22.90;82.10;;;;;;5054150;28;20048;-66
2023/08/12 01:08:49;;;;;;;12.70;9.05;;;22.90;82.20;;;;;;5047756;28;20029;-66
2023/08/12 01:11:18;;;;;;;16.15;9.95;;;22.90;82.30;;;;;;5049277;28;20029;-66
2023/08/12 01:13:44;;;;;;;13.50;9.88;;;22.90;82.30;;;;;;5044591;28;20024;-66
2023/08/12 01:16:13;;;;;;;13.70;9.32;;;22.90;82.30;;;;;;5050453;28;20021;-66
2023/08/12 01:18:40;;;;;;;16.13;9.50;;;22.90;82.40;;;;;;5052584;28;20053;-66
2023/08/12 01:21:12;;;;;;;12.88;9.40;;;22.90;82.50;;;;;;5047806;28;20032;-66
2023/08/12 01:23:38;;;;;;;19.30;11.23;;;22.90;82.60;;;;;;5051445;28;20039;-66
2023/08/12 01:26:04;;;;;;;14.65;11.07;;;22.90;82.50;;;;;;5047275;28;20057;-66
2023/08/12 01:28:30;;;;;;;14.25;10.52;;;22.90;82.50;;;;;;5047820;28;20036;-66
2023/08/12 01:30:59;;;;;;;13.82;10.75;;;22.90;82.50;;;;;;5052204;28;20033;-66
2023/08/12 01:33:42;;;;;;;16.10;10.65;;;22.90;82.60;;;;;;5055565;28;20083;-66
2023/08/12 01:36:17;;;;;;;13.27;9.88;;;22.80;82.60;;;;;;5046783;28;20119;-66
2023/08/12 01:38:44;;;;;;;13.70;9.90;;;22.80;82.70;;;;;;5052168;28;20025;-66
2023/08/12 01:41:12;;;;;;;17.15;11.90;;;22.80;82.70;;;;;;5055774;28;20128;-66
2023/08/12 01:43:39;;;;;;;14.77;10.70;;;22.80;82.70;;;;;;5038670;28;20410;-66
2023/08/12 01:46:04;;;;;;;17.25;12.48;;;22.80;82.80;;;;;;5055247;28;20040;-66
2023/08/12 01:48:30;;;;;;;18.63;12.85;;;22.80;82.80;;;;;;5056611;28;20036;-66
2023/08/12 01:50:56;;;;;;;20.48;12.60;;;22.80;82.80;;;;;;5054348;28;20025;-66
2023/08/12 01:53:22;;;;;;;17.48;12.70;;;22.80;82.80;;;;;;5035934;28;20143;-66
2023/08/12 01:55:49;;;;;;;18.23;13.13;;;22.80;82.90;;;;;;5051759;28;20037;-66
2023/08/12 01:58:15;;;;;;;17.70;12.80;;;22.70;82.90;;;;;;5029597;28;20495;-66
2023/08/12 02:00:41;;;;;;;17.63;13.20;;;22.80;83.00;;;;;;5055494;28;20072;-66
2023/08/12 02:03:07;;;;;;;17.30;13.18;;;22.70;83.00;;;;;;5051992;28;20385;-66
2023/08/12 02:05:34;;;;;;;19.33;13.73;;;22.70;83.00;;;;;;5055631;28;20107;-66
2023/08/12 02:07:59;;;;;;;18.70;13.43;;;22.70;83.00;;;;;;5045494;28;20175;-66
2023/08/12 02:10:25;;;;;;;17.15;14.27;;;22.70;83.00;;;;;;5050118;28;20061;-66
2023/08/12 02:12:52;;;;;;;17.90;13.50;;;22.70;83.00;;;;;;5050967;28;20023;-66
2023/08/12 02:15:18;;;;;;;20.02;13.73;;;22.80;83.10;;;;;;5055199;28;20056;-66
2023/08/12 02:17:44;;;;;;;18.83;14.43;;;22.70;83.00;;;;;;5052271;28;20044;-66
2023/08/12 02:20:10;;;;;;;17.88;14.18;;;22.70;83.10;;;;;;5055314;28;20024;-66
2023/08/12 02:22:36;;;;;;;19.45;14.15;;;22.70;83.10;;;;;;5055371;28;20384;-66
2023/08/12 02:25:02;;;;;;;21.10;13.90;;;22.70;83.10;;;;;;5051803;28;20071;-66
2023/08/12 02:27:28;;;;;;;22.35;15.23;;;22.70;83.10;;;;;;5044876;28;20508;-66
2023/08/12 02:29:53;;;;;;;17.52;13.82;;;22.70;83.30;;;;;;5052663;28;20017;-66
2023/08/12 02:32:19;;;;;;;18.65;14.65;;;22.70;83.30;;;;;;5054604;28;20056;-66
2023/08/12 02:34:45;;;;;;;19.52;15.15;;;22.70;83.20;;;;;;5054771;28;20107;-66
2023/08/12 02:37:12;;;;;;;20.15;15.48;;;22.70;83.20;;;;;;5055879;28;20056;-66
2023/08/12 02:39:38;;;;;;;17.90;14.38;;;22.70;83.20;;;;;;5043126;28;20041;-66
2023/08/12 02:42:04;;;;;;;17.73;13.88;;;22.70;83.30;;;;;;5050785;28;20035;-66
2023/08/12 02:44:30;;;;;;;18.02;14.75;;;22.70;83.40;;;;;;5041825;28;20067;-66
2023/08/12 02:46:56;;;;;;;21.85;15.20;;;22.70;83.30;;;;;;5054077;28;20025;-66
2023/08/12 02:49:22;;;;;;;19.45;15.50;;;22.70;83.30;;;;;;5044137;28;20032;-66
2023/08/12 02:51:47;;;;;;;20.45;15.25;;;22.70;83.40;;;;;;5054958;28;20051;-66
2023/08/12 02:54:13;;;;;;;18.15;15.10;;;22.70;83.40;;;;;;5050946;28;20036;-66
2023/08/12 02:56:40;;;;;;;20.55;16.08;;;22.70;83.40;;;;;;5043205;28;20021;-66
2023/08/12 02:59:05;;;;;;;18.80;15.73;;;22.70;83.50;;;;;;5041403;28;20037;-66
2023/08/12 03:01:31;;;;;;;19.05;15.40;;;22.70;83.50;;;;;;5054274;28;20032;-66
2023/08/12 03:03:57;;;;;;;19.65;15.77;;;22.70;83.50;;;;;;5052715;28;20033;-66
2023/08/12 03:06:23;;;;;;;22.67;17.20;;;22.70;83.60;;;;;;5043865;28;20098;-66
2023/08/12 03:08:48;;;;;;;17.80;15.35;;;22.70;83.60;;;;;;5041228;28;20045;-66
2023/08/12 03:11:15;;;;;;;20.75;16.95;;;22.70;83.60;;;;;;5052625;28;20039;-66
2023/08/12 03:13:41;;;;;;;23.00;16.52;;;22.70;83.50;;;;;;5045800;28;20058;-66
2023/08/12 03:16:14;;;;;;;20.65;16.75;;;22.70;83.50;;;;;;5054233;28;20176;-66
2023/08/12 03:18:42;;;;;;;20.50;15.52;;;22.70;83.50;;;;;;5049276;28;20421;-66
2023/08/12 03:21:11;;;;;;;21.27;17.17;;;22.70;83.60;;;;;;5050652;28;20077;-66
2023/08/12 03:23:38;;;;;;;20.80;16.33;;;22.70;83.60;;;;;;5049936;28;20035;-66
2023/08/12 03:26:05;;;;;;;19.88;16.05;;;22.70;83.60;;;;;;5041357;28;20438;-66
2023/08/12 03:28:31;;;;;;;20.60;15.52;;;22.70;83.70;;;;;;5042228;28;20048;-66
2023/08/12 03:30:57;;;;;;;20.30;16.48;;;22.60;83.60;;;;;;5046040;28;20033;-66
2023/08/12 03:33:24;;;;;;;19.50;16.20;;;22.70;83.70;;;;;;5044245;28;20273;-66
2023/08/12 03:35:50;;;;;;;22.20;16.60;;;22.70;84.40;;;;;;5049609;28;20017;-66
2023/08/12 03:38:17;;;;;;;23.17;17.05;;;22.70;83.70;;;;;;5043709;28;20029;-66
2023/08/12 03:40:45;;;;;;;19.63;16.58;;;22.60;83.70;;;;;;5050544;28;20366;-66
2023/08/12 03:43:13;;;;;;;19.98;15.85;;;22.60;83.70;;;;;;5045683;28;20029;-66
2023/08/12 03:45:43;;;;;;;20.50;16.50;;;22.60;83.80;;;;;;5032865;28;20034;-66
2023/08/12 03:48:11;;;;;;;19.88;15.88;;;22.60;83.80;;;;;;5047288;28;20067;-66
2023/08/12 03:50:38;;;;;;;20.73;17.08;;;22.60;83.80;;;;;;5048735;28;20052;-66
2023/08/12 03:53:04;;;;;;;21.52;16.30;;;22.60;83.80;;;;;;5049792;28;20090;-66
2023/08/12 03:55:33;;;;;;;19.20;15.63;;;22.60;83.80;;;;;;5047886;28;20036;-66
2023/08/12 03:58:00;;;;;;;20.48;15.45;;;22.60;83.80;;;;;;5038347;28;20112;-66
2023/08/12 04:00:27;;;;;;;18.63;15.45;;;22.60;83.80;;;;;;5050099;28;20032;-66
2023/08/12 04:02:57;;;;;;;19.88;15.80;;;22.60;83.80;;;;;;5051557;28;20120;-66
2023/08/12 04:05:23;;;;;;;23.23;16.38;;;22.60;83.80;;;;;;5045665;28;20033;-66
2023/08/12 04:07:49;;;;;;;20.27;15.82;;;22.60;83.90;;;;;;5046655;28;20113;-66
2023/08/12 04:10:15;;;;;;;20.08;16.15;;;22.60;83.90;;;;;;5042885;28;20017;-66
2023/08/12 04:12:43;;;;;;;22.13;16.25;;;22.60;83.90;;;;;;5047887;28;20383;-66
2023/08/12 04:15:09;;;;;;;24.25;16.65;;;22.60;83.90;;;;;;5034734;28;20446;-66
2023/08/12 04:17:35;;;;;;;21.02;16.30;;;22.60;84.00;;;;;;5047561;28;20049;-66
2023/08/12 04:20:06;;;;;;;20.60;16.88;;;22.60;84.00;;;;;;5050987;28;20032;-66
2023/08/12 04:22:33;;;;;;;21.08;16.70;;;22.60;84.10;;;;;;5048213;28;20112;-66
2023/08/12 04:24:58;;;;;;;22.05;16.65;;;22.60;84.00;;;;;;5046829;28;20080;-66
2023/08/12 04:27:24;;;;;;;22.75;16.70;;;22.60;84.00;;;;;;5045953;28;20029;-66
2023/08/12 04:29:50;;;;;;;22.85;16.25;;;22.60;84.00;;;;;;5047172;28;20051;-66
2023/08/12 04:32:16;;;;;;;18.42;14.85;;;22.60;84.00;;;;;;5038455;28;20061;-66
2023/08/12 04:34:45;;;;;;;20.45;16.15;;;22.60;83.90;;;;;;5051284;28;20082;-66
2023/08/12 04:37:12;;;;;;;20.13;15.68;;;22.60;83.90;;;;;;5043416;28;20083;-66
2023/08/12 04:39:38;;;;;;;19.10;15.50;;;22.60;83.90;;;;;;5044017;28;20037;-66
2023/08/12 04:42:04;;;;;;;17.77;15.25;;;22.60;83.90;;;;;;5048788;28;20028;-66
2023/08/12 04:44:30;;;;;;;21.25;14.55;;;22.60;84.00;;;;;;5028526;28;20041;-66
2023/08/12 04:46:56;;;;;;;20.45;15.10;;;22.60;83.90;;;;;;5053225;28;20024;-66
2023/08/12 04:49:23;;;;;;;17.58;14.02;;;22.60;83.90;;;;;;5040878;28;20026;-66
2023/08/12 04:51:52;;;;;;;17.40;14.40;;;22.60;83.90;;;;;;5032222;28;20366;-65
2023/08/12 04:54:18;;;;;;;19.85;14.75;;;22.60;83.90;;;;;;5052840;28;20025;-65
2023/08/12 04:56:44;;;;;;;21.40;15.10;;;22.60;83.90;;;;;;5052530;28;20072;-66
2023/08/12 04:59:10;;;;;;;19.98;13.75;;;22.60;83.90;;;;;;5049502;28;20045;-65
2023/08/12 05:01:36;;;;;;;18.45;13.40;;;22.60;83.90;;;;;;5049440;28;20104;-65
2023/08/12 05:04:03;;;;;;;19.27;14.75;;;22.70;84.00;;;;;;5066150;28;20022;-65
2023/08/12 05:06:29;;;;;;;18.10;14.35;;;22.70;83.90;;;;;;5032906;28;20331;-65
2023/08/12 05:08:55;;;;;;;20.70;14.82;;;22.70;83.90;;;;;;5023618;28;20116;-65
2023/08/12 05:11:21;;;;;;;18.42;14.52;;;22.70;83.90;;;;;;5051189;28;20039;-66
2023/08/12 05:13:46;;;;;;;18.95;14.70;;;22.70;83.90;;;;;;5053680;28;20024;-66
2023/08/12 05:16:12;;;;;;;18.67;13.80;;;22.70;83.90;;;;;;5057390;28;20040;-66
2023/08/12 05:18:38;;;;;;;19.25;14.40;;;22.70;83.90;;;;;;5055980;28;20017;-66
2023/08/12 05:21:04;;;;;;;18.05;14.63;;;22.70;84.00;;;;;;5051596;28;20106;-65
2023/08/12 05:23:30;;;;;;;18.60;14.85;;;22.70;84.00;;;;;;5033234;28;20029;-65
2023/08/12 05:25:55;;;;;;;18.88;14.13;;;22.60;83.90;;;;;;5045744;28;20041;-66
2023/08/12 05:28:21;;;;;;;18.88;14.18;;;22.70;84.10;;;;;;5063607;28;20037;-65
2023/08/12 05:30:48;;;;;;;19.92;15.23;;;22.70;84.20;;;;;;5049389;28;20028;-66
2023/08/12 05:33:13;;;;;;;18.45;14.45;;;22.60;84.10;;;;;;5053698;28;20033;-66
2023/08/12 05:35:39;;;;;;;17.85;14.63;;;22.60;84.10;;;;;;5054899;28;20028;-66
2023/08/12 05:38:05;;;;;;;17.48;14.63;;;22.70;84.30;;;;;;5052186;28;20028;-66
2023/08/12 05:40:30;;;;;;;17.60;14.48;;;22.60;84.20;;;;;;5051511;28;20021;-66
2023/08/12 05:42:56;;;;;;;19.67;14.18;;;22.60;84.20;;;;;;5049955;28;20343;-66
2023/08/12 05:45:22;;;;;;;23.38;15.48;;;22.60;84.20;;;;;;5053416;28;20036;-66
2023/08/12 05:47:47;;;;;;;18.55;14.10;;;22.60;84.20;;;;;;5051610;28;20029;-66
2023/08/12 05:50:13;;;;;;;18.67;13.55;;;22.60;84.20;;;;;;5042359;28;20057;-65
2023/08/12 05:52:39;;;;;;;18.08;13.48;;;22.60;84.20;;;;;;5041975;28;20022;-65
2023/08/12 05:55:05;;;;;;;20.63;14.00;;;22.60;84.30;;;;;;5043642;28;20024;-66
2023/08/12 05:57:31;;;;;;;17.98;12.50;;;22.60;84.30;;;;;;5048803;28;20032;-66
2023/08/12 05:59:56;;;;;;;17.02;12.85;;;22.60;84.30;;;;;;5048636;28;20040;-66
2023/08/12 06:02:22;;;;;;;17.15;12.43;;;22.60;84.30;;;;;;5047861;28;20031;-67
2023/08/12 06:04:48;;;;;;;16.35;12.07;;;22.50;84.20;;;;;;5042155;28;20036;-67
2023/08/12 06:07:14;;;;;;;17.40;12.02;;;22.50;84.20;;;;;;5048812;28;20036;-66
2023/08/12 06:09:39;;;;;;;16.63;10.75;;;22.50;84.20;;;;;;5048089;28;20033;-66
2023/08/12 06:12:05;;;;;;;14.73;10.15;;;22.50;84.80;;;;;;5047633;28;20079;-67
2023/08/12 06:14:31;;;;;;;13.80;9.45;;;22.50;84.10;;;;;;5046590;28;20025;-66
2023/08/12 06:16:57;;;;;;;12.55;9.60;;;22.50;84.20;;;;;;5042238;28;20035;-67
2023/08/12 06:19:23;;;;;;;15.13;9.43;;;22.40;84.10;;;;;;5043529;28;20026;-66
2023/08/12 06:21:48;;;;;;;12.18;9.07;;;22.40;84.10;;;;;;5047182;28;20083;-66
2023/08/12 06:24:14;;;;;;;14.70;9.80;;;22.40;84.10;;;;;;5047083;28;20041;-66
2023/08/12 06:26:40;;;;;;;12.27;8.63;;;22.40;84.00;;;;;;5047399;28;20127;-66
2023/08/12 06:29:06;;;;;;;13.13;8.07;;;22.40;84.10;;;;;;5048859;28;20060;-66
2023/08/12 06:31:31;;;;;;;12.60;7.88;;;22.30;84.10;;;;;;5063266;28;20024;-65
2023/08/12 06:33:57;;;;;;;10.52;8.07;;;22.30;84.20;;;;;;5042850;28;20506;-66
2023/08/12 06:36:23;;;;;;;11.52;6.65;;;22.30;84.20;;;;;;5042170;28;20022;-66
2023/08/12 06:38:49;;;;;;;11.98;6.15;;;22.30;84.20;;;;;;5041477;28;20111;-66
2023/08/12 06:41:14;;;;;;;9.63;6.45;;;22.30;84.20;;;;;;5051576;28;20033;-66
2023/08/12 06:43:40;;;;;;;9.40;5.43;;;22.30;84.10;;;;;;5042412;28;20032;-66
2023/08/12 06:46:06;;;;;;;8.88;5.35;;;22.30;84.20;;;;;;5039242;28;20446;-64
2023/08/12 06:48:31;;;;;;;9.30;5.43;;;22.30;84.10;;;;;;5042448;28;20033;-64
2023/08/12 06:50:57;;;;;;;8.65;5.28;;;22.20;83.90;;;;;;5043659;28;20130;-65
2023/08/12 06:53:24;;;;;;;8.98;4.88;;;22.30;83.80;;;;;;5046962;28;20018;-65
2023/08/12 06:55:50;;;;;;;9.30;5.53;;;22.20;83.90;;;;;;5047516;28;20410;-64
2023/08/12 06:58:16;;;;;;;9.48;4.88;;;22.20;83.90;;;;;;5053234;28;20059;-64
2023/08/12 07:00:42;;;;;;;10.95;5.47;;;22.20;83.90;;;;;;5044854;28;20056;-64
2023/08/12 07:03:08;;;;;;;8.70;5.47;;;22.20;83.90;;;;;;5023301;28;20026;-64
2023/08/12 07:05:34;;;;;;;10.27;5.55;;;22.20;83.80;;;;;;5044716;28;20071;-64
2023/08/12 07:07:59;;;;;;;9.45;4.68;;;22.20;83.80;;;;;;5045352;28;20074;-64
2023/08/12 07:10:25;;;;;;;9.43;4.85;;;22.30;83.80;;;;;;5050881;28;20077;-64
2023/08/12 07:12:51;;;;;;;8.90;5.00;;;22.30;83.70;;;;;;5049367;28;20048;-64
2023/08/12 07:15:17;;;;;;;8.68;4.70;;;22.30;83.70;;;;;;5043999;28;20395;-64
2023/08/12 07:17:42;;;;;;;10.57;5.65;;;22.30;83.60;;;;;;5056261;28;20100;-65
2023/08/12 07:20:08;;;;;;;10.32;4.70;;;22.30;83.50;;;;;;5052835;28;20070;-65
2023/08/12 07:22:34;;;;;;;10.30;5.32;;;22.40;83.50;;;;;;5049884;28;20437;-65
2023/08/12 07:25:00;;;;;;;10.05;5.28;;;22.40;83.50;;;;;;5053664;28;20040;-65
2023/08/12 07:27:27;;;;;;;9.45;5.45;;;22.40;83.50;;;;;;5047164;28;20032;-65
2023/08/12 07:29:53;;;;;;;7.85;4.70;;;22.40;83.60;;;;;;5046311;28;20083;-65
2023/08/12 07:32:19;;;;;;;10.10;5.68;;;22.40;83.50;;;;;;5044543;28;20138;-65
2023/08/12 07:34:45;;;;;;;9.75;6.25;;;22.40;83.60;;;;;;5040633;28;20025;-65
2023/08/12 07:37:11;;;;;;;8.55;5.38;;;22.40;83.80;;;;;;5045639;28;20422;-65
2023/08/12 07:39:37;;;;;;;9.63;5.53;;;22.40;83.80;;;;;;5049433;28;20025;-65
2023/08/12 07:42:03;;;;;;;8.90;5.82;;;22.40;83.80;;;;;;5045023;28;20024;-65
2023/08/12 07:44:29;;;;;;;10.43;5.55;;;22.40;83.80;;;;;;5041239;28;20370;-65
2023/08/12 07:46:54;;;;;;;9.40;5.72;;;22.40;83.80;;;;;;5053994;28;20044;-65
2023/08/12 07:49:21;;;;;;;10.60;6.30;;;22.40;83.80;;;;;;5052465;28;20473;-65
2023/08/12 07:51:47;;;;;;;9.23;5.57;;;22.40;83.90;;;;;;5054437;28;20058;-65
2023/08/12 07:54:13;;;;;;;9.20;4.85;;;22.30;84.50;;;;;;5037533;28;20111;-65
2023/08/12 07:56:39;;;;;;;8.50;4.68;;;22.30;83.90;;;;;;5053496;28;20021;-65
2023/08/12 07:59:04;;;;;;;9.40;4.88;;;22.30;84.10;;;;;;5047316;28;20060;-65
2023/08/12 08:01:30;;;;;;;9.27;4.63;;;22.30;83.90;;;;;;5050371;28;20028;-65
2023/08/12 08:03:56;;;;;;;8.38;4.72;;;22.30;83.90;;;;;;5043848;28;20411;-65
2023/08/12 08:06:23;;;;;;;7.45;4.28;;;22.30;84.00;;;;;;5045471;28;20087;-64
2023/08/12 08:08:49;;;;;;;7.30;4.03;;;22.30;84.00;;;;;;5050135;28;20029;-65
2023/08/12 08:11:15;;;;;;;8.20;3.70;;;22.20;83.90;;;;;;5053502;28;20040;-65
2023/08/12 08:13:41;;;;;;;7.40;3.78;;;22.20;83.90;;;;;;5053677;28;20040;-65
2023/08/12 08:16:06;;;;;;;7.47;3.65;;;22.20;84.00;;;;;;5041165;28;20065;-65
2023/08/12 08:18:32;;;;;;;6.35;3.25;;;22.20;84.80;;;;;;5050679;28;20055;-65
2023/08/12 08:20:58;;;;;;;6.32;3.15;;;22.20;84.10;;;;;;5027592;28;20462;-64
2023/08/12 08:23:24;;;;;;;6.32;2.72;;;22.20;84.10;;;;;;5045242;28;20139;-65
2023/08/12 08:25:50;;;;;;;5.72;2.70;;;22.30;84.10;;;;;;5049423;28;20140;-65
2023/08/12 08:28:15;;;;;;;6.30;2.75;;;22.20;84.10;;;;;;5053303;28;20083;-65
2023/08/12 08:30:41;;;;;;;7.80;2.70;;;22.30;84.10;;;;;;5053447;28;20032;-65
2023/08/12 08:33:08;;;;;;;5.53;2.45;;;22.30;84.10;;;;;;5054320;28;20044;-65
2023/08/12 08:35:33;;;;;;;6.65;2.95;;;22.30;84.10;;;;;;5036888;28;20350;-65
2023/08/12 08:37:59;;;;;;;6.57;3.00;;;22.30;84.20;;;;;;5028784;28;20020;-64
2023/08/12 08:40:26;;;;;;;5.80;2.88;;;22.30;84.20;;;;;;5052708;28;20047;-65
2023/08/12 08:42:53;;;;;;;5.90;2.72;;;22.30;84.20;;;;;;5053515;28;20362;-65
2023/08/12 08:45:21;;;;;;;7.30;3.08;;;22.40;84.30;;;;;;5053048;28;20024;-65
2023/08/12 08:47:48;;;;;;;5.43;2.72;;;22.40;84.30;;;;;;5055981;28;20032;-65
2023/08/12 08:50:15;;;;;;;5.45;2.80;;;22.40;84.40;;;;;;5055432;28;20032;-65
2023/08/12 08:52:43;;;;;;;6.53;2.70;;;22.40;84.40;;;;;;5054388;28;20108;-65
2023/08/12 08:55:09;;;;;;;6.63;2.90;;;22.40;84.40;;;;;;5055868;28;20029;-65
2023/08/12 08:57:37;;;;;;;5.57;2.72;;;22.40;84.40;;;;;;5056359;28;20086;-64
2023/08/12 09:00:07;;;;;;;5.88;2.70;;;22.40;84.50;;;;;;5051455;28;20037;-65
2023/08/12 09:02:33;;;;;;;5.73;2.73;;;22.50;84.50;;;;;;5053487;28;20383;-66
2023/08/12 09:05:01;;;;;;;5.80;2.80;;;22.50;84.50;;;;;;5045585;28;20309;-66
2023/08/12 09:07:29;;;;;;;5.57;2.50;;;22.50;84.60;;;;;;5053967;28;20036;-67
2023/08/12 09:09:56;;;;;;;5.95;2.78;;;22.60;84.60;;;;;;5056669;28;20145;-66
2023/08/12 09:12:22;;;;;;;5.07;2.70;;;22.60;84.40;;;;;;5038598;28;20064;-65
2023/08/12 09:14:48;;;;;;;5.40;2.40;;;22.60;84.40;;;;;;5056111;28;20037;-64
2023/08/12 09:17:14;;;;;;;5.50;2.65;;;22.60;84.30;;;;;;5044898;28;20024;-66
2023/08/12 09:19:40;;;;;;;4.38;2.50;;;22.60;84.30;;;;;;5050895;28;20342;-65
2023/08/12 09:22:10;;;;;;;4.90;2.45;;;22.60;84.30;;;;;;5046450;28;20033;-65
2023/08/12 09:24:36;;;;;;;5.60;2.50;;;22.70;84.50;;;;;;5047056;28;20041;-65
2023/08/12 09:27:02;;;;;;;5.03;2.58;;;22.70;84.60;;;;;;5039320;28;20486;-65
2023/08/12 09:29:35;;;;;;;4.53;2.40;;;22.70;84.50;;;;;;5035311;28;20040;-65
2023/08/12 09:32:12;;;;;;;5.13;2.60;;;22.80;84.40;;;;;;5048831;28;20105;-65
2023/08/12 09:34:45;;;;;;;4.80;2.47;;;22.80;84.30;;;;;;5048652;28;20032;-65
2023/08/12 09:37:13;;;;;;;4.00;2.00;;;22.80;84.30;;;;;;5030240;28;20025;-65
2023/08/12 09:39:38;;;;;;;3.63;2.03;;;22.90;84.30;;;;;;5048872;28;20040;-65
2023/08/12 09:42:05;;;;;;;3.03;1.52;;;23.00;84.20;;;;;;5045862;28;20025;-65
2023/08/12 09:44:34;;;;;;;2.42;1.35;;;23.10;84.00;;;;;;5039387;28;20029;-65
2023/08/12 09:47:00;;;;;;;3.63;1.60;;;23.00;83.90;;;;;;5052916;28;20032;-65
2023/08/12 09:49:27;;;;;;;2.55;1.33;;;23.00;84.00;;;;;;5043154;28;20426;-65
2023/08/12 09:51:53;;;;;;;1.80;1.20;;;23.10;83.90;;;;;;5054848;28;20505;-66
2023/08/12 09:54:19;;;;;;;1.58;0.98;;;23.20;83.70;;;;;;5055206;28;20052;-66
2023/08/12 09:56:48;;;;;;;1.42;0.95;;;23.30;83.50;;;;;;5049337;28;20116;-66
2023/08/12 09:59:20;;;;;;;1.95;1.05;;;23.60;83.10;;;;;;5054649;28;20086;-66
2023/08/12 10:01:47;;;;;;;2.95;1.27;;;23.70;82.80;;;;;;5055854;28;20028;-66
2023/08/12 10:04:17;;;;;;;2.22;1.20;;;23.80;82.60;;;;;;5056399;28;20358;-66
2023/08/12 10:06:44;;;;;;;1.83;1.10;;;23.80;82.40;;;;;;5049968;28;20025;-66
2023/08/12 10:09:11;;;;;;;1.63;1.13;;;23.70;82.40;;;;;;5051696;28;20037;-67
2023/08/12 10:11:37;;;;;;;2.38;1.30;;;23.60;82.50;;;;;;5050417;28;20458;-66
2023/08/12 10:14:08;;;;;;;1.67;1.08;;;23.60;82.70;;;;;;5049699;28;20449;-66
2023/08/12 10:16:34;;;;;;;;;;;23.60;82.70;;;;;;5038789;28;20048;-66
2023/08/12 10:19:02;;;;;;;2.25;1.25;;;23.60;82.70;;;;;;5055201;28;19921;-67
2023/08/12 10:21:28;;;;;;;2.20;1.27;;;23.90;82.40;;;;;;5054854;28;20150;-66
2023/08/12 10:23:57;;;;;;;1.83;1.10;;;24.00;82.00;;;;;;5038822;28;20082;-66
2023/08/12 10:26:24;;;;;;;3.20;1.20;;;24.20;81.50;;;;;;5055128;28;20049;-66
2023/08/12 10:28:50;;;;;;;2.42;1.30;;;24.30;81.30;;;;;;5028531;28;20036;-66
2023/08/12 10:31:16;;;;;;;2.15;1.40;;;24.20;80.90;;;;;;5055491;28;20028;-65
2023/08/12 10:33:42;;;;;;;1.70;1.10;;;24.10;81.10;;;;;;5055530;28;20032;-65
2023/08/12 10:36:08;;;;;;;3.05;1.30;;;24.00;81.10;;;;;;5055420;28;20017;-65
2023/08/12 10:38:34;;;;;;;3.10;1.42;;;23.90;81.20;;;;;;5034400;28;20380;-65
2023/08/12 10:41:25;;;;;;;4.50;1.85;;;23.70;81.20;;;;;;5053152;28;20108;-65
2023/08/12 10:44:09;;;;;;;;;;;23.60;81.20;;;;;;5043819;28;20100;-65
2023/08/12 10:46:36;;;;;;;4.22;1.80;;;23.50;81.50;;;;;;5042317;28;19921;-65
2023/08/12 10:49:10;;;;;;;3.38;1.73;;;23.30;81.60;;;;;;5038708;28;20059;-65
2023/08/12 10:51:39;;;;;;;4.30;1.80;;;23.20;81.60;;;;;;5055075;28;20123;-65
2023/08/12 10:54:17;;;;;;;4.32;1.80;;;23.20;81.50;;;;;;5029951;28;20387;-65
2023/08/12 10:57:01;;;;;;;6.95;1.90;;;23.20;81.40;;;;;;5031421;28;20025;-65
2023/08/12 10:59:45;;;;;;;4.40;2.00;;;23.30;80.90;;;;;;5053894;28;20394;-65
2023/08/12 11:02:36;;;;;;;5.28;2.00;;;23.70;80.50;;;;;;5028996;28;20027;-65
2023/08/12 11:05:09;;;;;;;4.07;1.70;;;24.00;79.60;;;;;;5047264;28;20025;-65
2023/08/12 11:07:41;;;;;;;3.42;1.40;;;24.20;79.10;;;;;;5047978;28;20044;-65
2023/08/12 11:10:14;;;;;;;3.67;1.35;;;24.50;78.50;;;;;;5037097;28;20037;-65
2023/08/12 11:12:54;;;;;;;4.80;1.90;;;24.80;77.70;;;;;;5051082;28;20032;-65
2023/08/12 11:15:30;;;;;;;4.47;1.48;;;25.00;77.30;;;;;;5055201;28;20033;-65
2023/08/12 11:17:56;;;;;;;4.63;1.60;;;25.20;76.20;;;;;;5052302;28;20028;-65
2023/08/12 11:20:22;;;;;;;3.42;1.30;;;25.20;75.70;;;;;;5053726;28;20461;-66
2023/08/12 11:22:48;;;;;;;3.25;1.27;;;25.10;75.40;;;;;;5050089;28;20088;-66
2023/08/12 11:25:14;;;;;;;3.58;1.40;;;25.10;75.20;;;;;;5044932;28;20043;-66
2023/08/12 11:27:45;;;;;;;4.57;1.42;;;25.30;74.80;;;;;;5049204;28;20413;-66
2023/08/12 11:30:20;;;;;;;5.32;1.65;;;25.40;74.00;;;;;;5052712;28;20040;-66
2023/08/12 11:32:51;;;;;;;4.65;1.70;;;25.50;73.20;;;;;;5052526;28;20033;-66
2023/08/12 11:35:17;;;;;;;;;;;25.60;72.80;;;;;;5045033;28;20048;-66
2023/08/12 11:37:45;;;;;;;4.05;1.48;;;25.80;72.90;;;;;;5051074;28;19988;-66
2023/08/12 11:40:14;;;;;;;4.18;1.30;;;26.00;72.20;;;;;;5040481;28;20029;-66
2023/08/12 11:42:45;;;;;;;6.30;1.80;;;26.10;71.30;;;;;;5046968;28;20034;-66
2023/08/12 11:45:12;;;;;;;4.43;1.60;;;26.20;70.40;;;;;;5047792;28;20120;-66
2023/08/12 11:47:41;;;;;;;6.28;1.63;;;26.30;70.10;;;;;;5048509;28;20533;-66
2023/08/12 11:50:09;;;;;;;4.53;1.67;;;26.30;69.20;;;;;;5044215;28;20411;-67
2023/08/12 11:52:36;;;;;;;5.53;1.80;;;26.20;68.80;;;;;;5050068;28;20052;-67
2023/08/12 11:55:02;;;;;;;4.32;1.88;;;26.10;68.60;;;;;;5047169;28;20024;-67
2023/08/12 11:57:28;;;;;;;7.20;1.88;;;26.20;68.40;;;;;;5047586;28;20114;-67
2023/08/12 12:00:13;;;;;;;6.13;1.83;;;26.20;67.70;;;;;;5046856;28;20406;-66
2023/08/12 12:02:49;;;;;;;5.85;1.80;;;26.20;67.00;;;;;;5045131;28;20029;-67
2023/08/12 12:05:16;;;;;;;4.22;1.92;;;26.30;66.40;;;;;;5049403;28;20072;-67
2023/08/12 12:07:43;;;;;;;5.13;1.65;;;26.30;66.30;;;;;;5048746;28;20412;-67
2023/08/12 12:10:15;;;;;;;4.45;1.40;;;26.30;66.10;;;;;;5046431;28;20036;-67
2023/08/12 12:12:41;;;;;;;5.72;1.90;;;26.30;65.70;;;;;;5049808;28;20399;-67
2023/08/12 12:15:07;;;;;;;3.83;1.45;;;26.30;66.00;;;;;;5043912;28;20030;-67
2023/08/12 12:17:38;;;;;;;5.78;1.92;;;26.40;65.80;;;;;;5046277;28;20045;-67
2023/08/12 12:20:06;;;;;;;4.90;1.60;;;26.40;65.60;;;;;;5057413;28;20032;-67
2023/08/12 12:22:33;;;;;;;7.50;2.00;;;26.30;64.90;;;;;;5047530;28;20037;-67
2023/08/12 12:25:00;;;;;;;6.00;1.77;;;26.30;64.80;;;;;;5049131;28;20041;-67
2023/08/12 12:27:26;;;;;;;4.72;1.85;;;26.30;64.70;;;;;;5059569;28;20369;-67
2023/08/12 12:29:54;;;;;;;6.63;2.17;;;26.20;64.70;;;;;;5050890;28;20045;-67
2023/08/12 12:32:20;;;;;;;7.38;1.70;;;26.10;64.40;;;;;;5048108;28;20036;-67
2023/08/12 12:34:46;;;;;;;5.75;1.98;;;26.00;64.50;;;;;;5047325;28;20037;-67
2023/08/12 12:37:13;;;;;;;6.70;2.08;;;26.00;64.50;;;;;;5047641;28;20096;-65